createdAt,value
2022-10-06T00:01:32.501Z,1.60
2022-10-06T00:03:58.817Z,1.05
2022-10-06T00:06:25.044Z,1.10
2022-10-06T00:08:51.303Z,1.35
2022-10-06T00:11:17.661Z,1.50
2022-10-06T00:13:44.024Z,1.63
2022-10-06T00:16:11.426Z,1.60
2022-10-06T00:18:37.757Z,1.20
2022-10-06T00:21:04.375Z,1.52
2022-10-06T00:23:30.752Z,1.40
2022-10-06T00:25:57.162Z,1.58
2022-10-06T00:28:23.481Z,1.52
2022-10-06T00:30:51.191Z,1.25
2022-10-06T00:33:17.740Z,1.88
2022-10-06T00:35:44.454Z,1.50
2022-10-06T00:38:12.323Z,1.70
2022-10-06T00:40:49.947Z,1.35
2022-10-06T00:43:35.156Z,2.22
2022-10-06T00:46:01.592Z,1.73
2022-10-06T00:48:29.171Z,2.63
2022-10-06T00:50:57.220Z,1.33
2022-10-06T00:53:25.182Z,1.27
2022-10-06T00:55:53.281Z,1.27
2022-10-06T00:58:20.279Z,1.70
2022-10-06T01:00:47.723Z,1.67
2022-10-06T01:03:19.303Z,1.23
2022-10-06T01:05:50.291Z,2.05
2022-10-06T01:08:17.163Z,1.55
2022-10-06T01:10:43.515Z,1.67
2022-10-06T01:13:11.067Z,1.50
2022-10-06T01:15:39.560Z,1.83
2022-10-06T01:18:08.690Z,1.92
2022-10-06T01:20:36.813Z,1.60
2022-10-06T01:23:06.903Z,1.40
2022-10-06T01:25:34.162Z,1.65
2022-10-06T01:28:01.631Z,1.08
2022-10-06T01:30:39.453Z,1.70
2022-10-06T01:33:05.686Z,1.67
2022-10-06T01:35:31.983Z,1.67
2022-10-06T01:37:59.484Z,1.60
2022-10-06T01:40:28.924Z,1.50
2022-10-06T01:42:55.686Z,2.78
2022-10-06T01:45:21.912Z,1.58
2022-10-06T01:47:48.240Z,1.67
2022-10-06T01:50:14.771Z,1.52
2022-10-06T01:52:41.218Z,1.60
2022-10-06T01:55:07.677Z,1.80
2022-10-06T01:57:38.628Z,1.38
2022-10-06T02:00:05.097Z,1.50
2022-10-06T02:02:31.688Z,1.77
2022-10-06T02:04:58.233Z,1.20
2022-10-06T02:07:24.557Z,1.40
2022-10-06T02:09:51.174Z,1.73
2022-10-06T02:12:17.500Z,1.17
2022-10-06T02:14:43.833Z,1.65
2022-10-06T02:17:10.306Z,2.58
2022-10-06T02:19:36.580Z,2.17
2022-10-06T02:22:02.869Z,1.10
2022-10-06T02:24:30.101Z,1.67
2022-10-06T02:26:56.569Z,1.52
2022-10-06T02:29:22.816Z,2.20
2022-10-06T02:31:49.565Z,1.52
2022-10-06T02:34:16.337Z,1.05
2022-10-06T02:36:42.933Z,1.52
2022-10-06T02:39:09.206Z,1.45
2022-10-06T02:41:35.460Z,1.40
2022-10-06T02:44:01.795Z,2.60
2022-10-06T02:46:28.382Z,2.08
2022-10-06T02:48:54.680Z,2.55
2022-10-06T02:51:21.993Z,1.20
2022-10-06T02:53:48.905Z,1.40
2022-10-06T02:56:18.634Z,1.27
2022-10-06T02:58:45.412Z,1.23
2022-10-06T03:01:12.785Z,1.02
2022-10-06T03:03:39.356Z,1.42
2022-10-06T03:06:05.742Z,1.55
2022-10-06T03:08:32.689Z,1.15
2022-10-06T03:11:02.243Z,1.65
2022-10-06T03:13:29.696Z,1.42
2022-10-06T03:15:56.221Z,2.28
2022-10-06T03:18:22.629Z,2.55
2022-10-06T03:20:49.288Z,1.55
2022-10-06T03:23:15.607Z,1.20
2022-10-06T03:25:41.925Z,0.98
2022-10-06T03:28:08.325Z,1.90
2022-10-06T03:30:36.342Z,2.03
2022-10-06T03:33:02.708Z,1.00
2022-10-06T03:35:29.347Z,1.20
2022-10-06T03:37:55.927Z,1.25
2022-10-06T03:40:22.179Z,1.65
2022-10-06T03:42:48.405Z,1.58
2022-10-06T03:45:14.754Z,1.05
2022-10-06T03:47:41.027Z,1.13
2022-10-06T03:50:07.458Z,1.63
2022-10-06T03:52:34.123Z,1.67
2022-10-06T03:55:00.383Z,2.40
2022-10-06T03:57:26.643Z,1.88
2022-10-06T03:59:52.904Z,1.48
2022-10-06T04:02:19.270Z,1.45
2022-10-06T04:04:45.671Z,2.05
2022-10-06T04:07:12.020Z,1.52
2022-10-06T04:09:38.294Z,1.33
2022-10-06T04:12:04.613Z,1.60
2022-10-06T04:14:30.856Z,1.45
2022-10-06T04:16:57.360Z,1.90
2022-10-06T04:19:23.665Z,2.30
2022-10-06T04:21:50.280Z,2.13
2022-10-06T04:24:19.518Z,1.08
2022-10-06T04:26:46.472Z,1.75
2022-10-06T04:29:13.026Z,1.23
2022-10-06T04:31:40.957Z,1.95
2022-10-06T04:34:08.981Z,2.63
2022-10-06T04:36:39.427Z,1.42
2022-10-06T04:39:06.384Z,1.70
2022-10-06T04:41:34.319Z,2.17
2022-10-06T04:44:00.780Z,1.30
2022-10-06T04:46:42.757Z,1.73
2022-10-06T04:49:13.368Z,3.22
2022-10-06T04:51:44.184Z,1.55
2022-10-06T04:54:10.511Z,1.63
2022-10-06T04:56:36.826Z,1.52
2022-10-06T04:59:03.591Z,2.08
2022-10-06T05:01:34.158Z,1.50
2022-10-06T05:04:01.674Z,1.75
2022-10-06T05:06:32.336Z,1.77
2022-10-06T05:08:59.851Z,1.42
2022-10-06T05:11:26.275Z,1.55
2022-10-06T05:13:56.517Z,1.38
2022-10-06T05:16:23.566Z,1.73
2022-10-06T05:18:50.294Z,1.25
2022-10-06T05:21:20.701Z,1.83
2022-10-06T05:23:48.078Z,1.98
2022-10-06T05:26:25.732Z,1.45
2022-10-06T05:28:52.073Z,2.05
2022-10-06T05:31:21.444Z,2.25
2022-10-06T05:33:48.197Z,1.75
2022-10-06T05:36:16.515Z,1.60
2022-10-06T05:38:43.993Z,2.13
2022-10-06T05:41:14.804Z,1.90
2022-10-06T05:43:41.877Z,1.60
2022-10-06T05:46:12.532Z,1.35
2022-10-06T05:48:38.910Z,1.98
2022-10-06T05:51:06.480Z,1.90
2022-10-06T05:53:34.249Z,1.52
2022-10-06T05:56:03.558Z,2.00
2022-10-06T05:58:30.504Z,1.63
2022-10-06T06:01:05.325Z,1.58
2022-10-06T06:03:31.583Z,2.03
2022-10-06T06:05:58.277Z,1.13
2022-10-06T06:08:24.527Z,1.75
2022-10-06T06:10:51.208Z,1.60
2022-10-06T06:13:21.279Z,1.63
2022-10-06T06:16:04.140Z,2.10
2022-10-06T06:18:32.028Z,2.22
2022-10-06T06:20:59.805Z,2.35
2022-10-06T06:23:30.894Z,2.08
2022-10-06T06:26:07.610Z,1.48
2022-10-06T06:28:35.564Z,2.50
2022-10-06T06:31:23.614Z,1.50
2022-10-06T06:33:54.182Z,2.00
2022-10-06T06:36:25.136Z,2.10
2022-10-06T06:38:52.612Z,2.28
2022-10-06T06:41:21.320Z,1.52
2022-10-06T06:43:48.313Z,1.85
2022-10-06T06:46:15.609Z,1.73
2022-10-06T06:48:42.103Z,2.03
2022-10-06T06:51:11.144Z,1.50
2022-10-06T06:53:38.010Z,1.42
2022-10-06T06:56:04.828Z,1.55
2022-10-06T06:58:31.650Z,1.52
2022-10-06T07:01:14.958Z,1.83
2022-10-06T07:03:57.281Z,2.40
2022-10-06T07:06:28.150Z,2.40
2022-10-06T07:08:55.220Z,1.65
2022-10-06T07:11:25.682Z,1.85
2022-10-06T07:13:53.591Z,1.52
2022-10-06T07:16:39.502Z,1.77
2022-10-06T07:22:33.226Z,1.73
2022-10-06T07:25:07.056Z,1.98
2022-10-06T07:27:35.100Z,1.83
2022-10-06T07:30:01.646Z,2.65
2022-10-06T07:32:30.760Z,2.30
2022-10-06T07:34:58.631Z,1.75
2022-10-06T07:37:25.298Z,2.05
2022-10-06T07:39:51.578Z,2.80
2022-10-06T07:42:18.243Z,2.00
2022-10-06T07:45:05.381Z,1.77
2022-10-06T07:47:31.997Z,2.50
2022-10-06T07:49:58.634Z,3.03
2022-10-06T07:52:25.256Z,1.60
2022-10-06T07:54:51.713Z,1.90
2022-10-06T07:57:18.220Z,1.63
2022-10-06T07:59:44.531Z,1.98
2022-10-06T08:02:10.857Z,1.95
2022-10-06T08:04:37.157Z,1.75
2022-10-06T08:07:04.389Z,1.95
2022-10-06T08:09:30.795Z,2.33
2022-10-06T08:11:57.579Z,1.77
2022-10-06T08:14:24.108Z,2.50
2022-10-06T08:16:50.469Z,2.22
2022-10-06T08:19:19.531Z,2.35
2022-10-06T08:21:46.481Z,2.88
2022-10-06T08:24:12.717Z,1.95
2022-10-06T08:26:39.004Z,1.90
2022-10-06T08:29:05.760Z,2.15
2022-10-06T08:31:32.495Z,1.70
2022-10-06T08:34:01.303Z,2.20
2022-10-06T08:36:31.862Z,2.10
2022-10-06T08:38:58.684Z,1.80
2022-10-06T08:41:27.506Z,1.63
2022-10-06T08:43:57.867Z,1.80
2022-10-06T08:46:25.389Z,1.58
2022-10-06T08:48:51.779Z,1.73
2022-10-06T08:51:19.578Z,1.60
2022-10-06T08:53:55.079Z,1.52
2022-10-06T08:58:55.546Z,1.73
2022-10-06T09:01:24.027Z,1.40
2022-10-06T09:03:52.484Z,1.50
2022-10-06T09:06:27.619Z,1.30
2022-10-06T09:08:55.747Z,1.95
2022-10-06T09:11:27.564Z,2.67
2022-10-06T09:13:56.664Z,1.60
2022-10-06T09:16:32.194Z,1.40
2022-10-06T09:19:09.586Z,1.70
2022-10-06T09:21:35.937Z,1.35
2022-10-06T09:24:07.132Z,1.85
2022-10-06T09:26:33.933Z,1.17
2022-10-06T09:29:00.260Z,1.98
2022-10-06T09:31:28.739Z,1.58
2022-10-06T09:33:59.318Z,1.25
2022-10-06T09:36:25.812Z,1.85
2022-10-06T09:38:55.289Z,1.60
2022-10-06T09:41:24.221Z,1.30
2022-10-06T09:43:52.879Z,1.45
2022-10-06T09:46:41.639Z,1.60
2022-10-06T09:49:15.564Z,2.30
2022-10-06T09:51:41.821Z,1.05
2022-10-06T09:54:11.028Z,1.45
2022-10-06T09:56:44.990Z,1.42
2022-10-06T09:59:22.010Z,1.33
2022-10-06T10:01:59.776Z,1.27
2022-10-06T10:04:27.752Z,1.20
2022-10-06T10:06:54.043Z,1.67
2022-10-06T10:09:25.611Z,1.40
2022-10-06T10:12:25.294Z,0.80
2022-10-06T10:14:52.211Z,1.58
2022-10-06T10:17:20.613Z,1.58
2022-10-06T10:19:52.971Z,2.67
2022-10-06T10:22:24.288Z,1.58
2022-10-06T10:24:50.584Z,2.35
2022-10-06T10:27:23.023Z,1.63
2022-10-06T10:30:23.672Z,1.65
2022-10-06T10:33:00.821Z,2.35
2022-10-06T10:35:28.898Z,2.33
2022-10-06T10:38:01.132Z,1.52
2022-10-06T10:40:29.409Z,1.92
2022-10-06T10:43:13.977Z,1.58
2022-10-06T10:45:46.217Z,1.42
2022-10-06T10:48:18.665Z,1.35
2022-10-06T10:50:44.945Z,1.40
2022-10-06T10:53:14.991Z,1.02
2022-10-06T10:55:42.843Z,1.40
2022-10-06T10:58:41.848Z,1.00
2022-10-06T11:01:26.853Z,0.82
2022-10-06T11:03:56.643Z,1.57
2022-10-06T11:06:42.442Z,1.58
2022-10-06T11:09:19.085Z,1.15
2022-10-06T11:12:00.480Z,1.08
2022-10-06T11:14:26.763Z,0.98
2022-10-06T11:17:13.281Z,0.90
2022-10-06T11:19:57.808Z,1.00
2022-10-06T11:22:36.794Z,0.70
2022-10-06T11:25:20.832Z,0.90
2022-10-06T11:28:05.967Z,0.93
2022-10-06T11:30:35.648Z,1.42
2022-10-06T11:33:13.689Z,0.90
2022-10-06T11:35:41.682Z,1.15
2022-10-06T11:38:16.018Z,1.15
2022-10-06T11:40:58.730Z,0.85
2022-10-06T11:43:35.381Z,0.82
2022-10-06T11:46:04.848Z,1.25
2022-10-06T11:48:31.968Z,1.38
2022-10-06T11:51:33.714Z,1.25
2022-10-06T11:54:00.002Z,1.20
2022-10-06T11:56:38.730Z,1.23
2022-10-06T11:59:24.013Z,1.10
2022-10-06T12:01:51.676Z,0.93
2022-10-06T12:04:23.450Z,1.27
2022-10-06T12:06:50.708Z,1.30
2022-10-06T12:09:25.978Z,1.17
2022-10-06T12:11:53.579Z,1.08
2022-10-06T12:17:37.207Z,0.98
2022-10-06T12:20:22.251Z,0.93
2022-10-06T12:23:00.492Z,0.95
2022-10-06T12:25:32.005Z,1.05
2022-10-06T12:28:17.343Z,0.90
2022-10-06T12:30:47.168Z,1.27
2022-10-06T12:33:18.391Z,1.15
2022-10-06T12:35:44.974Z,1.55
2022-10-06T12:38:29.840Z,1.20
2022-10-06T12:40:56.492Z,0.90
2022-10-06T12:43:22.714Z,1.67
2022-10-06T12:45:54.912Z,0.90
2022-10-06T12:48:31.340Z,1.10
2022-10-06T12:51:02.899Z,1.00
2022-10-06T12:53:33.810Z,1.70
2022-10-06T12:56:05.179Z,1.42
2022-10-06T12:58:33.319Z,1.77
2022-10-06T13:01:01.075Z,1.38
2022-10-06T13:03:28.819Z,1.20
2022-10-06T13:05:56.493Z,1.20
2022-10-06T13:08:30.447Z,1.23
2022-10-06T13:11:15.436Z,0.95
2022-10-06T13:13:49.378Z,1.48
2022-10-06T13:16:16.956Z,1.13
2022-10-06T13:18:43.270Z,1.80
2022-10-06T13:21:14.353Z,1.25
2022-10-06T13:23:40.873Z,1.35
2022-10-06T13:26:08.505Z,1.13
2022-10-06T13:28:43.708Z,1.20
2022-10-06T13:31:17.098Z,1.00
2022-10-06T13:33:44.275Z,1.25
2022-10-06T13:36:11.030Z,1.02
2022-10-06T13:38:38.004Z,1.13
2022-10-06T13:41:05.765Z,1.10
2022-10-06T13:43:36.192Z,1.30
2022-10-06T13:46:25.806Z,0.90
2022-10-06T13:49:00.784Z,0.65
2022-10-06T13:51:32.132Z,1.55
2022-10-06T13:53:59.066Z,0.90
2022-10-06T13:59:13.307Z,1.65
2022-10-06T14:01:39.640Z,1.20
2022-10-06T14:04:13.260Z,1.00
2022-10-06T14:06:45.555Z,1.10
2022-10-06T14:09:13.792Z,0.60
2022-10-06T14:11:43.388Z,1.35
2022-10-06T14:14:14.399Z,0.85
2022-10-06T14:16:46.243Z,0.90
2022-10-06T14:19:31.022Z,1.20
2022-10-06T14:21:57.785Z,1.80
2022-10-06T14:24:27.080Z,0.77
2022-10-06T14:26:54.900Z,0.68
2022-10-06T14:29:22.183Z,0.90
2022-10-06T14:31:49.090Z,0.90
2022-10-06T14:34:16.916Z,1.50
2022-10-06T14:36:44.230Z,0.60
2022-10-06T14:39:14.641Z,0.63
2022-10-06T14:41:41.419Z,0.65
2022-10-06T14:44:12.033Z,1.13
2022-10-06T14:46:42.394Z,1.10
2022-10-06T14:49:09.923Z,0.38
2022-10-06T14:51:37.349Z,0.77
2022-10-06T14:54:04.875Z,0.73
2022-10-06T14:56:32.327Z,0.82
2022-10-06T14:59:00.636Z,1.30
2022-10-06T15:01:28.491Z,0.80
2022-10-06T15:03:56.027Z,0.70
2022-10-06T15:06:41.081Z,2.15
2022-10-06T15:09:07.464Z,0.65
2022-10-06T15:11:34.383Z,1.40
2022-10-06T15:14:01.059Z,1.02
2022-10-06T15:16:29.717Z,1.17
2022-10-06T15:18:57.808Z,1.10
2022-10-06T15:21:24.185Z,1.10
2022-10-06T15:23:57.762Z,1.10
2022-10-06T15:26:43.016Z,1.52
2022-10-06T15:29:09.409Z,0.63
2022-10-06T15:31:36.909Z,0.60
2022-10-06T15:34:04.165Z,0.70
2022-10-06T15:36:32.975Z,0.85
2022-10-06T15:38:59.837Z,1.23
2022-10-06T15:41:26.669Z,0.65
2022-10-06T15:43:56.427Z,1.27
2022-10-06T15:46:31.089Z,1.10
2022-10-06T15:49:00.955Z,1.08
2022-10-06T15:51:28.976Z,0.75
2022-10-06T15:53:55.401Z,0.85
2022-10-06T15:56:21.688Z,0.80
2022-10-06T15:58:48.709Z,0.88
2022-10-06T16:01:28.324Z,0.98
2022-10-06T16:03:54.765Z,1.85
2022-10-06T16:06:40.342Z,1.50
2022-10-06T16:09:08.181Z,1.40
2022-10-06T16:11:34.437Z,1.30
2022-10-06T16:14:00.694Z,1.10
2022-10-06T16:16:27.000Z,1.00
2022-10-06T16:18:53.358Z,1.20
2022-10-06T16:21:19.794Z,1.30
2022-10-06T16:23:46.057Z,0.90
2022-10-06T16:26:12.301Z,1.20
2022-10-06T16:28:38.609Z,1.08
2022-10-06T16:31:06.103Z,1.30
2022-10-06T16:33:32.343Z,0.88
2022-10-06T16:35:59.119Z,1.08
2022-10-06T16:38:25.708Z,1.92
2022-10-06T16:41:01.467Z,1.58
2022-10-06T16:43:31.647Z,1.33
2022-10-06T16:46:02.205Z,1.25
2022-10-06T16:48:28.798Z,1.25
2022-10-06T16:51:11.762Z,1.25
2022-10-06T16:53:42.020Z,1.20
2022-10-06T16:56:10.526Z,0.98
2022-10-06T16:58:37.442Z,1.60
2022-10-06T17:01:04.199Z,3.25
2022-10-06T17:03:30.550Z,1.50
2022-10-06T17:06:01.734Z,1.83
2022-10-06T17:08:27.984Z,1.40
2022-10-06T17:11:05.245Z,1.70
2022-10-06T17:13:31.800Z,1.50
2022-10-06T17:15:59.201Z,1.60
2022-10-06T17:18:25.687Z,1.13
2022-10-06T17:20:55.910Z,2.25
2022-10-06T17:23:22.448Z,1.23
2022-10-06T17:25:58.843Z,2.75
2022-10-06T17:28:25.829Z,1.80
2022-10-06T17:30:52.770Z,1.98
2022-10-06T17:33:19.791Z,1.63
2022-10-06T17:35:46.057Z,2.33
2022-10-06T17:38:12.660Z,1.65
2022-10-06T17:40:42.997Z,1.50
2022-10-06T17:43:09.286Z,1.10
2022-10-06T17:45:39.324Z,1.75
2022-10-06T17:48:06.406Z,1.85
2022-10-06T17:50:33.079Z,1.90
2022-10-06T17:52:59.387Z,1.70
2022-10-06T17:55:27.796Z,1.58
2022-10-06T17:57:58.272Z,2.63
2022-10-06T18:00:25.091Z,1.85
2022-10-06T18:02:51.944Z,1.95
2022-10-06T18:05:18.224Z,3.08
2022-10-06T18:07:44.493Z,2.22
2022-10-06T18:10:46.216Z,2.53
2022-10-06T18:13:12.493Z,2.25
2022-10-06T18:15:38.792Z,2.65
2022-10-06T18:18:05.042Z,2.72
2022-10-06T18:20:33.308Z,2.95
2022-10-06T18:22:59.548Z,2.28
2022-10-06T18:25:27.865Z,3.10
2022-10-06T18:27:54.880Z,2.20
2022-10-06T18:30:23.743Z,2.20
2022-10-06T18:38:27.215Z,2.13
2022-10-06T18:40:54.468Z,2.47
2022-10-06T18:43:20.876Z,1.90
2022-10-06T18:46:06.012Z,2.03
2022-10-06T18:48:50.834Z,1.70
2022-10-06T18:51:17.164Z,2.10
2022-10-06T18:53:43.537Z,2.72
2022-10-06T18:56:10.677Z,1.90
2022-10-06T18:58:39.643Z,2.53
2022-10-06T19:01:06.454Z,2.47
2022-10-06T19:03:32.775Z,2.60
2022-10-06T19:06:00.028Z,2.45
2022-10-06T19:08:26.895Z,2.75
2022-10-06T19:11:11.916Z,2.35
2022-10-06T19:13:38.252Z,3.00
2022-10-06T19:16:04.608Z,2.63
2022-10-06T19:18:36.429Z,2.95
2022-10-06T19:21:07.249Z,2.60
2022-10-06T19:23:36.511Z,2.90
2022-10-06T19:26:03.558Z,3.80
2022-10-06T19:28:31.419Z,2.97
2022-10-06T19:30:58.922Z,3.22
2022-10-06T19:33:26.977Z,3.55
2022-10-06T19:35:54.255Z,3.08
2022-10-06T19:38:21.062Z,3.47
2022-10-06T19:40:47.397Z,2.85
2022-10-06T19:43:14.058Z,2.92
2022-10-06T19:45:40.345Z,3.08
2022-10-06T19:48:06.727Z,2.95
2022-10-06T19:50:32.952Z,2.28
2022-10-06T19:52:59.572Z,2.97
2022-10-06T19:55:25.907Z,2.53
2022-10-06T19:57:52.136Z,3.40
2022-10-06T20:00:18.527Z,2.75
2022-10-06T20:02:44.938Z,3.30
2022-10-06T20:05:12.209Z,3.53
2022-10-06T20:07:38.573Z,3.58
2022-10-06T20:10:05.027Z,2.88
2022-10-06T20:12:33.534Z,2.90
2022-10-06T20:14:59.802Z,2.90
2022-10-06T20:17:26.952Z,3.05
2022-10-06T20:19:57.818Z,2.75
2022-10-06T20:22:24.764Z,2.80
2022-10-06T20:24:52.109Z,4.75
2022-10-06T20:27:18.408Z,2.35
2022-10-06T20:29:45.773Z,2.20
2022-10-06T20:32:12.035Z,2.97
2022-10-06T20:34:38.305Z,2.35
2022-10-06T20:37:05.046Z,2.65
2022-10-06T20:39:50.913Z,2.70
2022-10-06T20:42:17.808Z,2.53
2022-10-06T20:44:44.142Z,2.13
2022-10-06T20:47:11.468Z,2.90
2022-10-06T20:49:37.872Z,2.83
2022-10-06T20:52:05.002Z,3.05
2022-10-06T20:54:34.737Z,2.83
2022-10-06T20:57:05.143Z,2.63
2022-10-06T20:59:31.874Z,3.33
2022-10-06T21:02:01.332Z,2.78
2022-10-06T21:04:28.417Z,2.85
2022-10-06T21:06:54.874Z,2.90
2022-10-06T21:09:21.202Z,2.72
2022-10-06T21:11:47.700Z,2.50
2022-10-06T21:14:14.517Z,2.70
2022-10-06T21:16:42.595Z,3.05
2022-10-06T21:19:10.397Z,3.00
2022-10-06T21:21:37.294Z,3.45
2022-10-06T21:24:04.243Z,3.10
2022-10-06T21:26:30.719Z,2.75
2022-10-06T21:28:57.081Z,2.85
2022-10-06T21:31:24.607Z,2.80
2022-10-06T21:33:51.393Z,3.00
2022-10-06T21:36:18.848Z,3.40
2022-10-06T21:38:47.258Z,3.88
2022-10-06T21:41:29.744Z,3.00
2022-10-06T21:43:56.097Z,3.28
2022-10-06T21:46:28.369Z,3.20
2022-10-06T21:48:55.850Z,3.40
2022-10-06T21:51:25.638Z,2.90
2022-10-06T21:53:52.686Z,2.75
2022-10-06T21:56:19.344Z,2.78
2022-10-06T21:58:52.758Z,2.92
2022-10-06T22:01:20.069Z,2.88
2022-10-06T22:03:46.811Z,2.92
2022-10-06T22:06:16.874Z,2.70
2022-10-06T22:08:45.834Z,3.58
2022-10-06T22:11:22.199Z,2.53
2022-10-06T22:13:49.938Z,2.35
2022-10-06T22:16:18.727Z,3.50
2022-10-06T22:18:45.210Z,3.17
2022-10-06T22:21:11.675Z,3.05
2022-10-06T22:23:38.458Z,2.60
2022-10-06T22:26:04.814Z,2.95
2022-10-06T22:28:31.096Z,2.67
2022-10-06T22:31:03.394Z,2.88
2022-10-06T22:33:29.799Z,2.40
2022-10-06T22:35:56.069Z,2.80
2022-10-06T22:38:22.322Z,2.65
2022-10-06T22:40:48.632Z,2.53
2022-10-06T22:43:14.842Z,3.10
2022-10-06T22:45:41.119Z,2.95
2022-10-06T22:48:07.370Z,2.70
2022-10-06T22:50:33.619Z,2.65
2022-10-06T22:52:59.947Z,3.22
2022-10-06T22:55:26.207Z,2.33
2022-10-06T22:57:52.434Z,2.78
2022-10-06T23:00:18.661Z,2.53
2022-10-06T23:02:44.905Z,3.00
2022-10-06T23:05:11.192Z,2.95
2022-10-06T23:07:37.442Z,2.70
2022-10-06T23:10:03.731Z,2.70
2022-10-06T23:12:29.960Z,2.58
2022-10-06T23:14:56.333Z,3.00
2022-10-06T23:17:22.580Z,3.00
2022-10-06T23:19:48.831Z,2.55
2022-10-06T23:22:15.066Z,2.85
2022-10-06T23:24:41.335Z,3.42
2022-10-06T23:27:07.563Z,2.63
2022-10-06T23:29:33.842Z,2.55
2022-10-06T23:32:00.204Z,2.80
2022-10-06T23:34:26.545Z,2.70
2022-10-06T23:36:52.827Z,3.58
2022-10-06T23:39:19.060Z,3.13
2022-10-06T23:41:45.372Z,3.05
2022-10-06T23:44:11.742Z,3.20
2022-10-06T23:46:37.961Z,2.45
2022-10-06T23:49:04.157Z,3.05
2022-10-06T23:51:30.372Z,2.47
2022-10-06T23:53:56.785Z,3.10
2022-10-06T23:56:23.046Z,3.33
2022-10-06T23:58:49.259Z,4.22
